createdAt,value
2018-09-30T14:36:05.887Z,48.85
2018-09-30T14:38:04.042Z,49.15
2018-09-30T14:42:06.894Z,49.79
2018-09-30T14:43:05.803Z,49.60
2018-09-30T14:44:09.057Z,50.08
2018-09-30T14:45:11.487Z,50.01
2018-09-30T14:46:03.503Z,49.50
2018-09-30T14:47:03.781Z,50.37
2018-09-30T14:50:11.340Z,49.79
2018-09-30T14:51:03.298Z,50.17
2018-09-30T14:52:03.162Z,50.46
2018-09-30T14:53:03.173Z,51.61
2018-09-30T14:54:03.526Z,51.71
2018-09-30T14:55:03.113Z,51.32
2018-09-30T14:56:13.371Z,51.61
2018-09-30T14:57:03.279Z,51.32
2018-09-30T14:58:03.254Z,51.32
2018-09-30T15:00:03.212Z,50.75
2018-09-30T15:01:03.715Z,50.65
2018-09-30T15:02:05.609Z,51.32
2018-09-30T15:03:03.574Z,51.51
2018-09-30T15:04:04.106Z,51.61
2018-09-30T15:05:03.011Z,51.51
2018-09-30T15:06:04.088Z,51.51
2018-09-30T15:07:03.470Z,52.38
2018-09-30T15:08:03.742Z,52.86
2018-09-30T15:10:03.014Z,51.10
2018-09-30T15:11:03.385Z,51.71
2018-09-30T15:16:03.302Z,51.40
2018-09-30T15:17:03.038Z,52.36
2018-09-30T15:18:02.794Z,52.74
2018-09-30T15:19:02.832Z,51.59
2018-09-30T15:20:02.773Z,51.68
2018-09-30T15:21:03.912Z,51.49
2018-09-30T15:22:02.746Z,51.59
2018-09-30T15:23:03.096Z,52.83
2018-09-30T15:24:03.768Z,52.83
2018-09-30T15:25:02.766Z,52.64
2018-09-30T15:26:02.762Z,52.55
2018-09-30T15:28:02.709Z,52.26
2018-09-30T15:29:02.700Z,51.97
2018-09-30T15:30:04.052Z,52.16
2018-09-30T15:31:04.178Z,52.55
2018-09-30T15:32:02.620Z,52.45
2018-09-30T15:33:02.819Z,52.45
2018-09-30T15:34:02.655Z,52.64
2018-09-30T15:36:03.532Z,52.26
2018-09-30T15:37:07.271Z,51.59
2018-09-30T15:38:02.526Z,51.40
2018-09-30T15:39:02.962Z,51.75
2018-09-30T15:40:02.600Z,51.78
2018-09-30T15:41:02.625Z,51.85
2018-09-30T15:42:02.595Z,51.68
2018-09-30T15:43:03.703Z,52.81
2018-09-30T15:44:03.138Z,52.14
2018-09-30T15:45:02.841Z,52.42
2018-09-30T15:47:02.733Z,51.95
2018-09-30T15:48:02.651Z,52.71
2018-09-30T15:49:03.675Z,52.81
2018-09-30T15:50:02.962Z,52.81
2018-09-30T15:51:03.263Z,52.71
2018-09-30T15:52:02.679Z,53.09
2018-09-30T15:53:02.370Z,53.58
2018-09-30T15:54:02.450Z,53.96
2018-09-30T15:55:02.596Z,54.05
2018-09-30T15:56:04.243Z,54.22
2018-09-30T15:57:02.804Z,54.22
2018-09-30T15:58:02.245Z,54.60
2018-09-30T15:59:02.287Z,54.41
2018-09-30T16:00:02.271Z,54.70
2018-09-30T16:01:03.779Z,54.41
2018-09-30T16:02:02.570Z,54.50
2018-09-30T16:03:02.228Z,54.22
2018-09-30T16:04:02.303Z,54.60
2018-09-30T16:06:02.179Z,55.18
2018-09-30T16:07:02.115Z,55.65
2018-09-30T16:08:02.539Z,56.32
2018-09-30T16:09:02.133Z,56.81
2018-09-30T16:10:02.132Z,56.81
2018-09-30T16:11:02.143Z,56.32
2018-09-30T16:12:02.093Z,55.18
2018-09-30T16:13:02.097Z,56.13
2018-09-30T16:14:02.377Z,55.56
2018-09-30T16:15:02.106Z,54.99
2018-09-30T16:16:02.051Z,56.13
2018-09-30T16:17:01.980Z,56.20
2018-09-30T16:19:01.959Z,55.91
2018-09-30T16:22:02.165Z,56.59
2018-09-30T16:23:01.939Z,56.97
2018-09-30T16:24:01.924Z,57.83
2018-09-30T16:25:02.091Z,57.83
2018-09-30T16:26:01.846Z,57.83
2018-09-30T16:27:03.389Z,57.45
2018-09-30T16:28:01.822Z,57.45
2018-09-30T16:29:01.803Z,57.26
2018-09-30T16:30:01.835Z,57.26
2018-09-30T16:31:01.774Z,56.87
2018-09-30T16:32:01.778Z,57.26
2018-09-30T16:33:02.037Z,58.02
2018-09-30T16:34:03.601Z,57.83
2018-09-30T16:35:01.772Z,58.50
2018-09-30T16:37:01.817Z,58.40
2018-09-30T16:38:01.668Z,58.12
2018-09-30T16:39:01.900Z,58.12
2018-09-30T16:40:01.938Z,58.40
2018-09-30T16:41:02.191Z,58.12
2018-09-30T16:42:02.063Z,57.92
2018-09-30T16:44:02.567Z,58.59
2018-09-30T16:45:02.535Z,58.98
2018-09-30T16:46:01.688Z,58.95
2018-09-30T16:47:01.843Z,59.14
2018-09-30T16:48:01.579Z,58.95
2018-09-30T16:49:01.572Z,59.33
2018-09-30T16:50:02.368Z,59.23
2018-09-30T16:52:01.516Z,59.81
2018-09-30T16:53:01.445Z,60.00
2018-09-30T16:55:01.838Z,59.72
2018-09-30T16:56:01.399Z,59.91
2018-09-30T16:57:01.453Z,60.00
2018-09-30T16:58:01.429Z,60.10
2018-09-30T16:59:01.477Z,59.72
2018-09-30T17:00:01.715Z,60.38
2018-09-30T17:01:01.359Z,59.91
2018-09-30T17:02:01.668Z,60.86
2018-09-30T17:03:01.356Z,60.77
2018-09-30T17:04:01.392Z,60.96
2018-09-30T17:05:01.326Z,61.54
2018-09-30T17:06:01.304Z,61.51
2018-09-30T17:08:01.322Z,62.17
2018-09-30T17:09:01.555Z,62.74
2018-09-30T17:10:01.254Z,63.42
2018-09-30T17:11:01.178Z,63.51
2018-09-30T17:12:01.197Z,63.60
2018-09-30T17:13:01.221Z,62.94
2018-09-30T17:14:01.242Z,63.23
2018-09-30T17:15:01.138Z,63.60
2018-09-30T17:16:02.738Z,63.89
2018-09-30T17:17:01.190Z,63.13
2018-09-30T17:18:01.062Z,63.99
2018-09-30T17:19:01.084Z,63.80
2018-09-30T17:20:01.034Z,63.48
2018-09-30T17:21:01.105Z,63.67
2018-09-30T17:23:01.863Z,64.72
2018-09-30T17:24:01.031Z,64.91
2018-09-30T17:26:01.044Z,65.01
2018-09-30T17:28:01.581Z,66.16
2018-09-30T17:30:02.517Z,66.06
2018-09-30T17:31:00.949Z,65.87
2018-09-30T17:32:00.938Z,64.62
2018-09-30T17:33:02.315Z,66.44
2018-09-30T17:34:01.666Z,66.54
2018-09-30T17:35:01.728Z,66.73
2018-09-30T17:37:02.834Z,65.68
2018-09-30T17:38:00.933Z,66.06
2018-09-30T17:39:00.757Z,66.44
2018-09-30T17:41:00.718Z,66.44
2018-09-30T17:42:00.749Z,66.50
2018-09-30T17:43:01.182Z,66.22
2018-09-30T17:44:00.733Z,66.13
2018-09-30T17:45:00.713Z,66.13
2018-09-30T17:46:00.695Z,66.31
2018-09-30T17:47:01.237Z,66.13
2018-09-30T17:48:00.665Z,66.50
2018-09-30T17:49:00.884Z,67.36
2018-09-30T17:50:00.569Z,68.04
2018-09-30T17:51:00.570Z,67.84
2018-09-30T17:52:00.882Z,68.41
2018-09-30T17:54:00.629Z,69.76
2018-09-30T17:55:00.551Z,70.14
2018-09-30T17:56:00.830Z,69.24
2018-09-30T17:57:00.507Z,69.37
2018-09-30T17:58:00.533Z,69.85
2018-09-30T17:59:00.469Z,70.77
2018-09-30T18:00:00.437Z,71.82
2018-09-30T18:01:00.391Z,72.30
2018-09-30T18:02:00.743Z,72.01
2018-09-30T18:04:00.493Z,73.54
2018-09-30T18:05:00.332Z,74.40
2018-09-30T18:06:00.311Z,74.88
2018-09-30T18:07:00.464Z,73.83
2018-09-30T18:08:00.281Z,74.02
2018-09-30T18:10:00.260Z,74.59
2018-09-30T18:11:00.288Z,73.73
2018-09-30T18:12:00.216Z,73.63
2018-09-30T18:13:00.262Z,73.92
2018-09-30T18:14:00.196Z,74.40
2018-09-30T18:15:00.177Z,73.92
2018-09-30T18:16:00.471Z,74.11
2018-09-30T18:17:00.294Z,74.49
2018-09-30T18:18:00.355Z,74.46
2018-09-30T18:19:00.180Z,75.13
2018-09-30T18:20:00.083Z,75.89
2018-09-30T18:21:00.127Z,75.89
2018-09-30T18:22:00.113Z,76.08
2018-09-30T18:23:00.409Z,76.27
2018-09-30T18:24:00.761Z,77.51
2018-09-30T18:25:00.020Z,77.80
2018-09-30T18:26:00.084Z,77.42
2018-09-30T18:27:00.040Z,77.99
2018-09-30T18:27:59.959Z,77.80
2018-09-30T18:29:00.147Z,77.70
2018-09-30T18:29:59.938Z,77.80
2018-09-30T18:30:59.902Z,78.43
2018-09-30T18:31:59.887Z,78.66
2018-09-30T18:32:59.939Z,78.81
2018-09-30T18:33:59.867Z,79.00
2018-09-30T18:34:59.931Z,80.72
2018-09-30T18:36:00.194Z,81.38
2018-09-30T18:36:59.806Z,82.06
2018-09-30T18:37:59.804Z,82.72
2018-09-30T18:38:59.833Z,81.77
2018-09-30T18:40:59.742Z,82.72
2018-09-30T18:43:00.071Z,83.39
2018-09-30T18:43:59.890Z,83.77
2018-09-30T18:45:01.198Z,84.44
2018-09-30T18:46:59.648Z,84.34
2018-09-30T18:47:59.735Z,84.06
2018-09-30T18:48:59.729Z,85.68
2018-09-30T18:49:59.910Z,86.59
2018-09-30T18:50:59.641Z,86.69
2018-09-30T18:51:59.559Z,87.45
2018-09-30T18:52:59.673Z,87.54
2018-09-30T18:55:59.916Z,88.59
2018-09-30T18:57:00.255Z,89.54
2018-09-30T18:57:59.601Z,91.07
2018-09-30T18:58:59.926Z,91.88
2018-09-30T18:59:59.479Z,91.88
2018-09-30T19:01:59.755Z,93.32
2018-09-30T19:02:59.380Z,93.79
2018-09-30T19:03:59.369Z,93.79
2018-09-30T19:04:59.398Z,94.65
2018-09-30T19:05:59.324Z,94.46
2018-09-30T19:06:59.301Z,94.08
2018-09-30T19:07:59.633Z,94.74
2018-09-30T19:09:59.256Z,93.74
2018-09-30T19:11:59.316Z,95.36
2018-09-30T19:12:59.206Z,95.94
2018-09-30T19:13:59.488Z,96.80
2018-09-30T19:14:59.188Z,96.41
2018-09-30T19:15:59.288Z,96.12
2018-09-30T19:16:59.139Z,96.32
2018-09-30T19:17:59.180Z,96.03
2018-09-30T19:18:59.111Z,96.12
2018-09-30T19:19:59.372Z,95.94
2018-09-30T19:20:59.054Z,95.84
2018-09-30T19:23:59.053Z,96.51
2018-09-30T19:24:59.113Z,96.60
2018-09-30T19:25:59.283Z,97.27
2018-09-30T19:26:59.140Z,97.08
2018-09-30T19:27:58.937Z,97.27
2018-09-30T19:28:58.920Z,97.79
2018-09-30T19:29:58.989Z,97.51
2018-09-30T19:30:59.187Z,98.08
2018-09-30T19:31:59.196Z,98.08
2018-09-30T19:32:59.084Z,98.36
2018-09-30T19:33:58.832Z,98.74
2018-09-30T19:34:58.839Z,97.99
2018-09-30T19:35:58.798Z,98.08
2018-09-30T19:36:58.856Z,98.55
2018-09-30T19:37:58.757Z,99.03
2018-09-30T19:38:59.041Z,98.46
2018-09-30T19:40:01.183Z,99.03
2018-09-30T19:40:58.701Z,98.84
2018-09-30T19:41:58.698Z,98.55
2018-09-30T19:42:58.770Z,98.94
2018-09-30T19:43:58.675Z,98.74
2018-09-30T19:44:58.624Z,99.03
2018-09-30T19:45:58.657Z,98.84
2018-09-30T19:46:58.648Z,99.13
2018-09-30T19:47:58.825Z,98.84
2018-09-30T19:48:58.563Z,98.94
2018-09-30T19:49:58.541Z,98.65
2018-09-30T19:50:59.744Z,98.74
2018-09-30T19:52:00.496Z,98.84
2018-09-30T19:53:58.550Z,98.69
2018-09-30T19:54:58.464Z,98.79
2018-09-30T19:55:58.443Z,98.79
2018-09-30T19:56:59.012Z,98.69
2018-09-30T19:57:58.549Z,99.36
2018-09-30T19:58:58.821Z,98.88
2018-09-30T19:59:58.377Z,98.88
2018-09-30T20:00:58.694Z,98.69
2018-09-30T20:01:58.372Z,98.69
2018-09-30T20:04:58.624Z,98.79
2018-09-30T20:07:58.271Z,99.27
2018-09-30T20:08:58.244Z,99.55
2018-09-30T20:09:58.182Z,99.41
2018-09-30T20:11:58.501Z,99.79
2018-09-30T20:12:58.139Z,99.69
2018-09-30T20:13:58.155Z,99.69
2018-09-30T20:15:01.166Z,99.50
2018-09-30T20:15:58.069Z,99.31
2018-09-30T20:16:58.155Z,99.31
2018-09-30T20:17:58.020Z,99.31
2018-09-30T20:19:58.303Z,99.79
2018-09-30T20:20:58.211Z,99.41
2018-09-30T20:21:57.959Z,99.69
2018-09-30T20:22:57.935Z,99.50
2018-09-30T20:23:57.906Z,99.69
2018-09-30T20:24:57.955Z,99.41
2018-09-30T20:25:58.539Z,99.60
2018-09-30T20:26:58.092Z,99.41
2018-09-30T20:27:57.846Z,99.60
2018-09-30T20:28:57.824Z,99.45
2018-09-30T20:29:57.847Z,98.79
2018-09-30T20:30:57.781Z,98.79
2018-09-30T20:31:58.242Z,98.79
2018-09-30T20:32:57.755Z,98.69
2018-09-30T20:33:57.736Z,98.88
2018-09-30T20:34:57.714Z,98.88
2018-09-30T20:35:57.742Z,98.69
2018-09-30T20:36:57.946Z,98.69
2018-09-30T20:37:57.979Z,98.69
2018-09-30T20:38:57.651Z,98.50
2018-09-30T20:39:58.336Z,98.69
2018-09-30T20:40:57.639Z,99.16
2018-09-30T20:41:57.617Z,98.88
2018-09-30T20:43:57.868Z,98.97
2018-09-30T20:44:57.520Z,98.60
2018-09-30T20:45:57.507Z,98.55
2018-09-30T20:46:57.475Z,99.50
2018-09-30T20:47:58.695Z,99.50
2018-09-30T20:48:57.496Z,99.21
2018-09-30T20:49:57.813Z,99.11
2018-09-30T20:50:57.393Z,99.11
2018-09-30T20:52:57.608Z,99.21
2018-09-30T20:53:57.331Z,99.11
2018-09-30T20:56:57.633Z,98.07
2018-09-30T20:57:57.256Z,99.11
2018-09-30T20:58:57.285Z,99.21
2018-09-30T20:59:57.284Z,98.93
2018-09-30T21:00:57.421Z,98.64
2018-09-30T21:01:57.178Z,98.83
2018-09-30T21:02:57.484Z,98.45
2018-09-30T21:03:57.450Z,99.21
2018-09-30T21:04:57.295Z,99.30
2018-09-30T21:05:57.113Z,99.30
2018-09-30T21:06:57.083Z,99.40
2018-09-30T21:08:57.195Z,99.78
2018-09-30T21:09:57.083Z,99.50
2018-09-30T21:10:57.301Z,99.40
2018-09-30T21:11:57.059Z,99.59
2018-09-30T21:12:57.029Z,99.40
2018-09-30T21:13:56.971Z,99.30
2018-09-30T21:14:56.935Z,99.99
2018-09-30T21:15:56.912Z,99.99
2018-09-30T21:16:57.068Z,99.99
2018-09-30T21:17:58.428Z,99.99
2018-09-30T21:18:57.097Z,99.99
2018-09-30T21:19:56.847Z,99.99
2018-09-30T21:20:57.217Z,99.99
2018-09-30T21:21:56.804Z,99.97
2018-09-30T21:22:56.927Z,99.99
2018-09-30T21:23:56.901Z,99.99
2018-09-30T21:24:57.025Z,99.99
2018-09-30T21:25:56.918Z,99.99
2018-09-30T21:26:56.841Z,99.88
2018-09-30T21:27:56.872Z,99.99
2018-09-30T21:28:56.646Z,99.97
2018-09-30T21:29:56.698Z,99.59
2018-09-30T21:30:56.600Z,99.21
2018-09-30T21:31:56.965Z,99.69
2018-09-30T21:32:56.637Z,99.50
2018-09-30T21:33:56.587Z,99.59
2018-09-30T21:34:56.671Z,99.59
2018-09-30T21:35:56.557Z,99.11
2018-09-30T21:36:58.010Z,99.40
2018-09-30T21:37:56.540Z,99.99
2018-09-30T21:38:57.078Z,99.88
2018-09-30T21:39:56.513Z,99.88
2018-09-30T21:40:56.401Z,99.99
2018-09-30T21:41:56.436Z,99.99
2018-09-30T21:42:56.568Z,99.99
2018-09-30T21:44:56.551Z,99.99
2018-09-30T21:45:56.602Z,99.99
2018-09-30T21:47:56.343Z,99.97
2018-09-30T21:49:56.229Z,99.88
2018-09-30T21:50:56.358Z,99.99
2018-09-30T21:51:56.486Z,99.69
2018-09-30T21:52:56.268Z,99.99
2018-09-30T21:53:56.294Z,99.88
2018-09-30T21:54:57.882Z,99.88
2018-09-30T21:55:56.666Z,99.99
2018-09-30T21:56:56.238Z,99.99
2018-09-30T21:57:56.583Z,99.99
2018-09-30T21:58:56.044Z,99.99
2018-09-30T21:59:56.043Z,99.99
2018-09-30T22:00:56.118Z,99.99
2018-09-30T22:01:56.035Z,99.99
2018-09-30T22:02:56.037Z,99.99
2018-09-30T22:03:56.304Z,99.99
2018-09-30T22:04:56.207Z,99.99
2018-09-30T22:05:55.913Z,99.99
2018-09-30T22:06:56.190Z,99.99
2018-09-30T22:07:55.925Z,99.99
2018-09-30T22:08:56.174Z,99.99
2018-09-30T22:09:56.512Z,99.99
2018-09-30T22:10:56.061Z,99.99
2018-09-30T22:11:55.904Z,99.99
2018-09-30T22:12:56.649Z,99.99
2018-09-30T22:13:55.882Z,99.99
2018-09-30T22:14:56.112Z,99.99
2018-09-30T22:15:56.255Z,99.99
2018-09-30T22:16:55.863Z,99.99
2018-09-30T22:17:55.744Z,99.99
2018-09-30T22:18:55.864Z,99.99
2018-09-30T22:19:55.632Z,99.99
2018-09-30T22:20:55.667Z,99.99
2018-09-30T22:21:56.192Z,99.99
2018-09-30T22:23:55.654Z,99.99
2018-09-30T22:24:55.537Z,99.99
2018-09-30T22:25:55.661Z,99.99
2018-09-30T22:26:55.603Z,99.99
2018-09-30T22:27:55.929Z,99.99
2018-09-30T22:28:55.573Z,99.99
2018-09-30T22:29:55.572Z,99.99
2018-09-30T22:31:55.451Z,99.99
2018-09-30T22:32:55.469Z,99.99
2018-09-30T22:33:56.971Z,99.99
2018-09-30T22:34:55.691Z,99.99
2018-09-30T22:35:55.532Z,99.99
2018-09-30T22:36:55.361Z,99.99
2018-09-30T22:37:55.294Z,99.99
2018-09-30T22:38:55.316Z,99.99
2018-09-30T22:39:55.333Z,99.99
2018-09-30T22:40:55.212Z,99.99
2018-09-30T22:41:55.487Z,99.99
2018-09-30T22:42:55.348Z,99.99
2018-09-30T22:43:55.163Z,99.99
2018-09-30T22:44:55.189Z,99.99
2018-09-30T22:45:55.119Z,99.99
2018-09-30T22:46:55.095Z,99.99
2018-09-30T22:47:55.076Z,99.99
2018-09-30T22:48:55.370Z,99.99
2018-09-30T22:49:55.031Z,99.99
2018-09-30T22:50:55.004Z,99.99
2018-09-30T22:51:55.033Z,99.99
2018-09-30T22:52:54.965Z,99.99
2018-09-30T22:53:55.179Z,99.99
2018-09-30T22:54:54.932Z,99.99
2018-09-30T22:55:55.389Z,99.99
2018-09-30T22:56:54.937Z,99.99
2018-09-30T22:57:54.875Z,99.99
2018-09-30T22:58:54.859Z,99.99
2018-09-30T22:59:54.828Z,99.99
2018-09-30T23:00:54.856Z,99.99
2018-09-30T23:01:55.047Z,99.99
2018-09-30T23:02:55.136Z,99.99
2018-09-30T23:03:54.929Z,99.99
2018-09-30T23:04:54.727Z,99.99
2018-09-30T23:05:54.706Z,99.99
2018-09-30T23:06:54.686Z,99.99
2018-09-30T23:07:55.927Z,99.99
2018-09-30T23:08:54.910Z,99.99
2018-09-30T23:09:54.941Z,99.99
2018-09-30T23:11:54.794Z,99.99
2018-09-30T23:12:55.876Z,99.99
2018-09-30T23:13:54.944Z,99.99
2018-09-30T23:14:54.533Z,99.99
2018-09-30T23:15:54.513Z,99.99
2018-09-30T23:16:54.792Z,99.99
2018-09-30T23:17:54.558Z,99.99
2018-09-30T23:18:54.503Z,99.99
2018-09-30T23:20:54.443Z,99.99
2018-09-30T23:21:54.392Z,99.99
2018-09-30T23:22:54.761Z,99.99
2018-09-30T23:23:54.426Z,99.99
2018-09-30T23:24:54.369Z,99.99
2018-09-30T23:25:54.321Z,99.99
2018-09-30T23:26:54.330Z,99.99
2018-09-30T23:27:54.276Z,99.99
2018-09-30T23:28:55.856Z,99.99
2018-09-30T23:29:54.233Z,99.99
2018-09-30T23:30:54.449Z,99.99
2018-09-30T23:31:54.197Z,99.99
2018-09-30T23:32:54.488Z,99.99
2018-09-30T23:33:54.164Z,99.99
2018-09-30T23:34:54.475Z,99.99
2018-09-30T23:35:54.123Z,99.99
2018-09-30T23:36:54.100Z,99.99
2018-09-30T23:37:54.185Z,99.99
2018-09-30T23:38:54.316Z,99.99
2018-09-30T23:39:54.042Z,99.99
2018-09-30T23:40:54.366Z,99.99
2018-09-30T23:41:54.214Z,99.99
2018-09-30T23:42:54.180Z,99.99
2018-09-30T23:43:53.959Z,99.99
2018-09-30T23:44:53.986Z,99.99
2018-09-30T23:45:53.926Z,99.99
2018-09-30T23:47:53.969Z,99.99
2018-09-30T23:48:53.863Z,99.99
2018-09-30T23:49:53.843Z,99.99
2018-09-30T23:50:53.819Z,99.99
2018-09-30T23:51:54.054Z,99.99
2018-09-30T23:52:54.084Z,99.99
2018-09-30T23:53:53.759Z,99.99
2018-09-30T23:54:53.796Z,99.99
2018-09-30T23:55:53.730Z,99.99
2018-09-30T23:56:53.714Z,99.99
2018-09-30T23:57:53.860Z,99.99
2018-09-30T23:58:53.665Z,99.99
2018-09-30T23:59:53.976Z,99.99
